Time;durP1;ratioP1;P1;durP2;ratioP2;P2;SDS_P1;SDS_P2;PMS_P1;PMS_P2;Temp;Humidity;BMP_temperature;BMP_pressure;BME280_temperature;BME280_humidity;BME280_pressure;Samples;Min_cycle;Max_cycle;Signal;HPM_P1;HPM_P2
2024/04/12 00:02:11;;;;;;;7.53;4.93;;;18.40;68.80;;;;;;5464585;26;20380;-72
2024/04/12 00:04:41;;;;;;;8.60;5.70;;;18.40;69.20;;;;;;5474193;26;19999;-72
2024/04/12 00:07:13;;;;;;;8.18;5.28;;;18.40;68.80;;;;;;5453456;26;20007;-71
2024/04/12 00:10:06;;;;;;;8.93;5.32;;;18.20;69.60;;;;;;5451766;26;20002;-72
2024/04/12 00:12:33;;;;;;;15.00;6.20;;;18.00;69.80;;;;;;5455672;26;20014;-71
2024/04/12 00:15:16;;;;;;;8.82;5.30;;;17.90;70.60;;;;;;5451737;26;20516;-71
2024/04/12 00:17:45;;;;;;;8.40;5.15;;;18.00;70.80;;;;;;5469255;26;20349;-72
2024/04/12 00:20:13;;;;;;;10.20;6.30;;;17.90;70.20;;;;;;5453924;26;20013;-72
2024/04/12 00:22:43;;;;;;;10.02;5.68;;;17.80;70.20;;;;;;5452993;26;20576;-72
2024/04/12 00:25:12;;;;;;;9.02;5.70;;;17.60;70.80;;;;;;5453645;26;20075;-72
2024/04/12 00:27:40;;;;;;;10.10;5.68;;;17.60;71.00;;;;;;5451883;26;20350;-71
2024/04/12 00:30:08;;;;;;;9.40;5.55;;;17.50;71.30;;;;;;5451794;26;20003;-72
2024/04/12 00:32:36;;;;;;;9.65;5.93;;;17.50;71.30;;;;;;5464125;26;20006;-72
2024/04/12 00:35:11;;;;;;;8.43;5.75;;;17.40;71.70;;;;;;5461163;26;20039;-72
2024/04/12 00:37:52;;;;;;;8.68;5.72;;;17.30;71.70;;;;;;5466571;26;19998;-72
2024/04/12 00:40:21;;;;;;;7.38;5.20;;;17.20;71.80;;;;;;5456613;26;20353;-73
2024/04/12 00:42:49;;;;;;;8.75;5.60;;;17.20;72.00;;;;;;5467547;26;20071;-72
2024/04/12 00:45:32;;;;;;;6.95;5.25;;;17.30;72.00;;;;;;5475432;26;20361;-73
2024/04/12 00:48:00;;;;;;;8.23;5.50;;;17.20;72.20;;;;;;5471616;26;20384;-72
2024/04/12 00:50:28;;;;;;;10.93;5.90;;;17.20;72.20;;;;;;5460955;26;20346;-71
2024/04/12 00:52:55;;;;;;;8.98;5.75;;;17.00;72.60;;;;;;5470491;26;20003;-72
2024/04/12 00:55:22;;;;;;;8.82;5.70;;;16.90;72.90;;;;;;5463277;26;20018;-72
2024/04/12 00:57:52;;;;;;;9.00;5.70;;;16.90;73.00;;;;;;5452873;26;19999;-72
2024/04/12 01:00:20;;;;;;;9.75;5.72;;;16.90;73.10;;;;;;5471299;26;20627;-72
2024/04/12 01:02:48;;;;;;;8.25;5.65;;;17.00;72.70;;;;;;5455282;26;20018;-71
2024/04/12 01:05:18;;;;;;;9.98;5.75;;;17.00;72.70;;;;;;5469868;26;20508;-70
2024/04/12 01:07:52;;;;;;;9.07;5.73;;;17.00;72.90;;;;;;5469707;26;20003;-72
2024/04/12 01:10:44;;;;;;;9.90;6.10;;;17.00;72.80;;;;;;5462839;26;20006;-72
2024/04/12 01:13:11;;;;;;;11.88;5.55;;;16.90;72.50;;;;;;5452948;26;20444;-73
2024/04/12 01:15:39;;;;;;;;;;;16.90;72.80;;;;;;5453567;26;20356;-72
2024/04/12 01:18:11;;;;;;;9.27;5.13;;;16.90;73.20;;;;;;5422655;26;19924;-72
2024/04/12 01:20:39;;;;;;;10.18;5.65;;;17.00;73.00;;;;;;5421366;26;20394;-73
2024/04/12 01:23:10;;;;;;;11.35;5.68;;;17.00;73.00;;;;;;5450391;26;20003;-73
2024/04/12 01:25:37;;;;;;;8.82;5.18;;;16.80;73.10;;;;;;5421672;26;20007;-72
2024/04/12 01:28:09;;;;;;;8.05;6.05;;;16.60;73.80;;;;;;5444865;26;20003;-72
2024/04/12 01:30:39;;;;;;;10.13;5.72;;;16.50;73.90;;;;;;5466696;26;20003;-73
2024/04/12 01:33:09;;;;;;;10.57;5.65;;;16.40;74.20;;;;;;5471186;26;20031;-72
2024/04/12 01:35:37;;;;;;;11.87;5.60;;;16.50;74.50;;;;;;5456952;26;20002;-73
2024/04/12 01:38:18;;;;;;;7.38;5.85;;;16.40;74.40;;;;;;5465504;26;20257;-72
2024/04/12 01:40:57;;;;;;;10.18;5.97;;;16.50;74.40;;;;;;5450720;26;20695;-72
2024/04/12 01:43:27;;;;;;;10.40;5.80;;;16.40;74.20;;;;;;5452515;26;20074;-73
2024/04/12 01:45:55;;;;;;;12.73;5.43;;;16.50;74.40;;;;;;5435134;26;19999;-72
2024/04/12 01:48:23;;;;;;;11.68;5.80;;;16.40;74.50;;;;;;5449571;26;19998;-71
2024/04/12 01:50:51;;;;;;;11.43;5.90;;;16.40;74.50;;;;;;5471257;26;20002;-73
2024/04/12 01:53:21;;;;;;;9.98;6.75;;;16.30;74.50;;;;;;5454849;26;20360;-72
2024/04/12 01:55:50;;;;;;;;;;;16.10;75.20;;;;;;5453027;26;20014;-73
2024/04/12 01:58:19;;;;;;;11.48;5.82;;;16.10;75.30;;;;;;5454498;26;20002;-73
2024/04/12 02:00:49;;;;;;;8.40;5.80;;;16.20;75.40;;;;;;5456914;26;20016;-73
2024/04/12 02:03:17;;;;;;;9.95;6.22;;;16.20;75.50;;;;;;5488736;26;20020;-74
2024/04/12 02:05:48;;;;;;;11.30;6.20;;;16.00;75.40;;;;;;5488541;26;20329;-72
2024/04/12 02:08:16;;;;;;;10.45;6.25;;;16.00;75.90;;;;;;5506367;26;20337;-73
2024/04/12 02:10:48;;;;;;;8.90;6.20;;;16.10;75.50;;;;;;5462394;26;20525;-74
2024/04/12 02:13:17;;;;;;;13.85;6.03;;;16.10;75.10;;;;;;5456778;26;20063;-74
2024/04/12 02:15:48;;;;;;;10.13;5.40;;;16.00;75.30;;;;;;5457386;26;19998;-73
2024/04/12 02:18:19;;;;;;;11.35;5.85;;;16.00;75.40;;;;;;5449075;26;20005;-72
2024/04/12 02:20:51;;;;;;;9.20;6.22;;;16.00;75.60;;;;;;5461117;26;20012;-73
2024/04/12 02:23:19;;;;;;;8.25;6.00;;;15.80;75.70;;;;;;5510415;26;20006;-72
2024/04/12 02:25:49;;;;;;;12.70;6.28;;;15.80;76.50;;;;;;5473038;26;20002;-72
2024/04/12 02:28:18;;;;;;;9.85;5.80;;;15.80;76.50;;;;;;5488319;26;20009;-72
2024/04/12 02:30:57;;;;;;;8.55;5.82;;;15.70;76.70;;;;;;5426197;26;20392;-72
2024/04/12 02:33:27;;;;;;;9.93;5.72;;;15.60;76.60;;;;;;5479726;26;19997;-72
2024/04/12 02:36:03;;;;;;;14.07;7.00;;;15.60;77.20;;;;;;5464202;26;20006;-72
2024/04/12 02:38:31;;;;;;;8.90;6.30;;;15.60;77.20;;;;;;5511894;26;20038;-73
2024/04/12 02:40:59;;;;;;;9.85;6.35;;;15.60;77.20;;;;;;5468501;26;20017;-73
2024/04/12 02:43:29;;;;;;;9.88;6.22;;;15.60;76.70;;;;;;5455888;26;20003;-72
2024/04/12 02:45:58;;;;;;;9.68;6.25;;;15.50;76.80;;;;;;5456080;26;19999;-73
2024/04/12 02:48:28;;;;;;;14.15;6.57;;;15.50;77.90;;;;;;5465240;26;20001;-72
2024/04/12 02:50:58;;;;;;;9.55;6.90;;;15.50;77.20;;;;;;5524881;26;19998;-72
2024/04/12 02:53:27;;;;;;;7.82;5.95;;;15.40;77.40;;;;;;5512223;26;20006;-73
2024/04/12 02:56:11;;;;;;;11.38;5.97;;;15.40;77.60;;;;;;5487673;26;20013;-73
2024/04/12 02:58:44;;;;;;;15.10;6.38;;;15.30;77.80;;;;;;5444623;26;20017;-72
2024/04/12 03:01:17;;;;;;;8.23;6.18;;;15.30;77.70;;;;;;5487558;26;20017;-73
2024/04/12 03:03:46;;;;;;;8.45;6.20;;;15.30;77.90;;;;;;5477179;26;20001;-74
2024/04/12 03:06:17;;;;;;;8.35;6.20;;;15.30;77.70;;;;;;5489059;26;19998;-71
2024/04/12 03:08:49;;;;;;;8.68;6.25;;;15.30;77.70;;;;;;5472046;26;20010;-71
2024/04/12 03:11:21;;;;;;;14.15;6.40;;;15.10;78.20;;;;;;5433229;26;19998;-71
2024/04/12 03:13:51;;;;;;;8.32;6.35;;;15.10;78.50;;;;;;5483527;26;19997;-72
2024/04/12 03:16:20;;;;;;;8.57;5.60;;;15.20;78.50;;;;;;5444435;26;20030;-71
2024/04/12 03:19:10;;;;;;;11.35;5.85;;;15.10;78.70;;;;;;5514120;26;20014;-72
2024/04/12 03:21:40;;;;;;;11.10;6.18;;;15.10;78.90;;;;;;5460631;26;20070;-72
2024/04/12 03:24:09;;;;;;;8.35;6.25;;;15.10;78.80;;;;;;5430705;26;20442;-71
2024/04/12 03:26:37;;;;;;;7.78;5.75;;;15.10;78.70;;;;;;5435072;26;20012;-72
2024/04/12 03:29:08;;;;;;;10.45;6.68;;;15.00;79.20;;;;;;5454606;26;20034;-72
2024/04/12 03:31:38;;;;;;;10.48;7.10;;;14.90;79.60;;;;;;5468894;26;20471;-72
2024/04/12 03:34:07;;;;;;;;;;;14.80;79.50;;;;;;5488477;26;20002;-72
2024/04/12 03:42:03;;;;;;;12.15;6.68;;;14.80;80.50;;;;;;5502306;26;20009;-71
2024/04/12 03:44:34;;;;;;;12.02;6.97;;;15.00;79.50;;;;;;5471578;26;19998;-72
2024/04/12 03:47:08;;;;;;;13.13;6.93;;;14.90;79.20;;;;;;5514715;26;20084;-73
2024/04/12 03:49:40;;;;;;;10.85;6.65;;;14.90;79.50;;;;;;5493218;26;20025;-73
2024/04/12 03:52:13;;;;;;;9.02;7.22;;;14.70;79.90;;;;;;5510705;26;20004;-72
2024/04/12 03:54:45;;;;;;;16.90;7.00;;;14.80;79.90;;;;;;5489008;26;20334;-73
2024/04/12 03:57:15;;;;;;;10.23;7.00;;;14.80;79.80;;;;;;5506634;26;20016;-72
2024/04/12 03:59:43;;;;;;;9.63;6.75;;;14.80;79.90;;;;;;5454638;26;20803;-72
2024/04/12 04:02:13;;;;;;;9.52;7.22;;;14.70;80.00;;;;;;5451480;26;20020;-72
2024/04/12 04:04:47;;;;;;;11.98;7.20;;;14.70;80.10;;;;;;5482050;26;20002;-72
2024/04/12 04:07:15;;;;;;;8.75;6.55;;;14.70;80.40;;;;;;5457734;26;20070;-72
2024/04/12 04:09:45;;;;;;;13.45;7.32;;;14.70;80.40;;;;;;5474486;26;20013;-71
2024/04/12 04:12:15;;;;;;;15.00;7.97;;;14.80;80.20;;;;;;5501652;26;20020;-72
2024/04/12 04:14:48;;;;;;;13.80;7.53;;;14.80;80.30;;;;;;5485061;26;20346;-72
2024/04/12 04:17:18;;;;;;;12.52;7.93;;;14.80;80.10;;;;;;5501597;26;20747;-73
2024/04/12 04:19:51;;;;;;;10.52;6.60;;;14.80;79.90;;;;;;5456343;26;20002;-72
2024/04/12 04:24:58;;;;;;;13.18;7.07;;;14.50;80.40;;;;;;5500900;26;20002;-73
2024/04/12 04:27:26;;;;;;;12.52;7.25;;;14.40;81.20;;;;;;5493740;26;19998;-73
2024/04/12 04:29:56;;;;;;;12.18;7.70;;;14.60;81.20;;;;;;5494414;26;20005;-72
2024/04/12 04:32:26;;;;;;;;;;;14.60;80.30;;;;;;5458270;26;20337;-72
2024/04/12 04:35:04;;;;;;;13.20;7.28;;;14.60;81.00;;;;;;5501065;26;19951;-72
2024/04/12 04:37:37;;;;;;;11.63;6.80;;;14.80;80.50;;;;;;5457576;26;20346;-72
2024/04/12 04:40:20;;;;;;;14.35;7.03;;;14.70;80.30;;;;;;5451279;26;20010;-72
2024/04/12 04:42:49;;;;;;;10.65;6.40;;;14.80;80.00;;;;;;5458069;26;20002;-72
2024/04/12 04:45:18;;;;;;;10.65;6.50;;;14.90;79.30;;;;;;5455860;26;19998;-72
2024/04/12 04:47:48;;;;;;;11.30;7.05;;;14.90;79.50;;;;;;5482417;26;20009;-72
2024/04/12 04:50:20;;;;;;;12.88;6.40;;;15.00;79.40;;;;;;5463507;26;20006;-72
2024/04/12 04:52:50;;;;;;;15.05;6.90;;;15.00;78.80;;;;;;5489404;26;19998;-72
2024/04/12 04:55:18;;;;;;;10.90;6.45;;;15.00;78.90;;;;;;5457864;26;20088;-72
2024/04/12 04:57:49;;;;;;;12.73;7.10;;;15.00;79.20;;;;;;5457722;26;20006;-71
2024/04/12 05:00:22;;;;;;;12.32;7.20;;;15.00;78.70;;;;;;5474900;26;20015;-72
2024/04/12 05:02:52;;;;;;;8.57;6.70;;;15.10;78.60;;;;;;5493761;26;20017;-72
2024/04/12 05:05:27;;;;;;;9.95;6.38;;;15.00;78.70;;;;;;5504340;26;20668;-72
2024/04/12 05:07:57;;;;;;;10.35;6.75;;;15.10;78.60;;;;;;5489095;26;19998;-72
2024/04/12 05:10:33;;;;;;;12.55;7.00;;;15.20;78.40;;;;;;5457595;26;19998;-73
2024/04/12 05:13:06;;;;;;;69.32;40.08;;;15.10;78.50;;;;;;5458093;26;20042;-73
2024/04/12 05:18:12;;;;;;;164.27;98.68;;;15.30;78.40;;;;;;5488555;26;20081;-71
2024/04/12 05:20:42;;;;;;;176.88;99.95;;;15.40;78.10;;;;;;5457072;26;20345;-72
2024/04/12 05:23:17;;;;;;;32.23;23.30;;;15.40;77.80;;;;;;5456251;26;20084;-72
2024/04/12 05:25:46;;;;;;;26.30;17.50;;;15.50;77.80;;;;;;5511210;26;20008;-72
2024/04/12 05:28:14;;;;;;;73.90;45.22;;;15.40;78.40;;;;;;5476100;26;20042;-72
2024/04/12 05:30:42;;;;;;;14.38;11.48;;;15.50;78.50;;;;;;5464885;26;20009;-74
2024/04/12 05:33:11;;;;;;;16.60;10.05;;;15.60;78.20;;;;;;5476346;26;20468;-74
2024/04/12 05:35:40;;;;;;;12.30;8.40;;;15.50;78.10;;;;;;5452081;26;20002;-73
2024/04/12 05:38:08;;;;;;;15.52;9.05;;;15.50;78.40;;;;;;5427122;26;20610;-72
2024/04/12 05:40:45;;;;;;;14.90;9.15;;;15.60;78.10;;;;;;5469009;26;20629;-71
2024/04/12 05:43:13;;;;;;;13.93;8.73;;;15.40;78.80;;;;;;5435611;26;20310;-71
2024/04/12 05:45:52;;;;;;;16.42;8.50;;;15.50;78.70;;;;;;5488788;26;20070;-72
2024/04/12 05:48:21;;;;;;;13.60;8.45;;;15.80;78.40;;;;;;5426646;26;20408;-71
2024/04/12 05:50:53;;;;;;;17.38;9.52;;;15.90;78.30;;;;;;5448472;26;19998;-71
2024/04/12 05:53:30;;;;;;;18.67;9.40;;;16.10;78.40;;;;;;5511863;26;20002;-72
2024/04/12 05:58:47;;;;;;;16.40;8.93;;;16.30;77.80;;;;;;5505620;26;19999;-72
2024/04/12 06:01:15;;;;;;;12.93;9.57;;;16.40;78.00;;;;;;5456687;26;19998;-72
2024/04/12 06:03:48;;;;;;;13.98;8.63;;;16.40;77.90;;;;;;5450141;26;20010;-72
2024/04/12 06:06:21;;;;;;;15.07;9.30;;;16.40;78.10;;;;;;5481727;26;20437;-71
2024/04/12 06:08:49;;;;;;;18.90;9.18;;;16.50;77.90;;;;;;5437519;26;20016;-71
2024/04/12 06:11:17;;;;;;;14.27;8.57;;;16.40;78.00;;;;;;5500778;26;20002;-71
2024/04/12 06:13:52;;;;;;;16.38;9.48;;;16.40;77.70;;;;;;5502293;26;20345;-71
2024/04/12 06:16:19;;;;;;;16.08;9.25;;;16.30;77.20;;;;;;5462043;26;20017;-71
2024/04/12 06:18:50;;;;;;;22.88;9.73;;;16.30;77.50;;;;;;5470884;26;20032;-72
2024/04/12 06:21:18;;;;;;;16.30;10.00;;;16.40;77.50;;;;;;5509862;26;20013;-70
2024/04/12 06:23:49;;;;;;;16.60;9.38;;;16.50;77.30;;;;;;5489017;26;20353;-71
2024/04/12 06:26:16;;;;;;;18.85;10.43;;;16.60;77.00;;;;;;5462480;26;19998;-70
2024/04/12 06:28:44;;;;;;;18.27;10.85;;;16.60;77.20;;;;;;5476268;26;20006;-72
2024/04/12 06:31:19;;;;;;;20.85;9.85;;;16.70;77.20;;;;;;5464527;26;20329;-72
2024/04/12 06:33:49;;;;;;;20.83;10.95;;;16.70;76.70;;;;;;5465380;26;20001;-72
2024/04/12 06:36:17;;;;;;;19.15;11.98;;;16.80;77.00;;;;;;5487849;26;20318;-70
2024/04/12 06:38:45;;;;;;;17.77;11.35;;;16.80;77.30;;;;;;5480413;26;19998;-72
2024/04/12 06:41:14;;;;;;;23.58;12.13;;;16.90;77.40;;;;;;5474964;26;20012;-72
2024/04/12 06:43:42;;;;;;;17.63;11.80;;;16.90;77.00;;;;;;5466557;26;20001;-71
2024/04/12 06:46:11;;;;;;;19.45;11.52;;;16.90;77.30;;;;;;5468563;26;20010;-72
2024/04/12 06:48:43;;;;;;;17.92;11.43;;;17.00;77.20;;;;;;5492055;26;20006;-71
2024/04/12 06:51:13;;;;;;;17.27;11.63;;;17.00;77.10;;;;;;5439241;26;20066;-73
2024/04/12 06:53:44;;;;;;;23.67;11.13;;;17.10;77.00;;;;;;5511758;26;20094;-71
2024/04/12 06:56:15;;;;;;;18.42;10.43;;;17.20;76.70;;;;;;5500572;26;20006;-70
2024/04/12 06:58:47;;;;;;;18.15;10.75;;;17.30;76.60;;;;;;5428780;26;20513;-71
2024/04/12 07:01:21;;;;;;;16.90;10.63;;;17.30;76.40;;;;;;5511869;26;20315;-70
2024/04/12 07:03:52;;;;;;;18.00;10.38;;;17.40;76.70;;;;;;5479617;26;20421;-70
2024/04/12 07:06:20;;;;;;;17.23;9.90;;;17.50;76.10;;;;;;5457572;26;20078;-70
2024/04/12 07:08:51;;;;;;;15.50;9.88;;;17.50;76.10;;;;;;5454076;26;19998;-71
2024/04/12 07:11:21;;;;;;;15.20;10.02;;;17.50;76.20;;;;;;5487606;26;20006;-71
2024/04/12 07:13:53;;;;;;;18.58;9.38;;;17.60;76.30;;;;;;5474634;26;20006;-71
2024/04/12 07:16:21;;;;;;;15.32;9.27;;;17.70;77.20;;;;;;5487502;26;20006;-71
2024/04/12 07:18:50;;;;;;;17.10;9.98;;;17.70;76.70;;;;;;5475462;26;20009;-70
2024/04/12 07:21:22;;;;;;;15.07;9.57;;;17.80;76.80;;;;;;5439517;26;20012;-70
2024/04/12 07:23:51;;;;;;;20.77;9.65;;;17.90;76.60;;;;;;5425167;26;20002;-71
2024/04/12 07:26:27;;;;;;;14.95;9.70;;;17.90;75.80;;;;;;5485500;26;20338;-72
2024/04/12 07:29:01;;;;;;;17.60;10.02;;;18.00;75.80;;;;;;5485492;26;20030;-71
2024/04/12 07:31:34;;;;;;;16.75;9.48;;;18.00;76.50;;;;;;5469050;26;20010;-71
2024/04/12 07:34:05;;;;;;;18.30;9.95;;;18.00;76.00;;;;;;5470040;26;20038;-71
2024/04/12 07:36:34;;;;;;;16.77;10.13;;;18.10;76.20;;;;;;5446963;26;20432;-68
2024/04/12 07:39:09;;;;;;;15.25;10.23;;;18.00;75.80;;;;;;5486015;26;20002;-71
2024/04/12 07:41:43;;;;;;;17.90;10.70;;;18.10;76.20;;;;;;5455129;26;20092;-70
2024/04/12 07:44:14;;;;;;;13.63;9.15;;;18.10;76.20;;;;;;5444269;26;19998;-71
2024/04/12 07:46:51;;;;;;;15.52;9.88;;;18.30;76.60;;;;;;5491753;26;20006;-73
2024/04/12 07:49:20;;;;;;;16.35;9.98;;;18.40;75.60;;;;;;5485082;26;20476;-69
2024/04/12 07:51:49;;;;;;;22.63;9.68;;;18.70;75.60;;;;;;5495896;26;20059;-70
2024/04/12 07:54:16;;;;;;;15.32;9.02;;;18.80;74.90;;;;;;5482796;26;20010;-71
2024/04/12 07:56:56;;;;;;;18.60;8.68;;;18.90;74.80;;;;;;5493874;26;20002;-71
2024/04/12 07:59:29;;;;;;;17.55;9.27;;;19.00;74.00;;;;;;5491316;26;20034;-70
2024/04/12 08:01:57;;;;;;;18.25;8.90;;;19.10;73.30;;;;;;5463828;26;20014;-71
2024/04/12 08:04:36;;;;;;;15.65;9.50;;;19.00;73.60;;;;;;5454442;26;20013;-70
2024/04/12 08:07:17;;;;;;;16.33;9.18;;;19.20;74.00;;;;;;5487247;26;20009;-71
2024/04/12 08:09:46;;;;;;;14.20;9.40;;;19.30;74.00;;;;;;5497565;26;19994;-72
2024/04/12 08:12:23;;;;;;;16.05;7.90;;;19.40;73.10;;;;;;5483033;26;20074;-73
2024/04/12 08:15:06;;;;;;;22.55;8.85;;;19.50;72.40;;;;;;5441525;26;19998;-72
2024/04/12 08:17:39;;;;;;;13.43;7.47;;;19.70;71.80;;;;;;5484574;26;20303;-72
2024/04/12 08:20:14;;;;;;;13.82;8.05;;;19.80;71.40;;;;;;5456282;26;19998;-72
2024/04/12 08:22:46;;;;;;;10.00;6.88;;;19.90;71.60;;;;;;5478832;26;20439;-71
2024/04/12 08:25:17;;;;;;;14.05;6.97;;;20.00;71.70;;;;;;5455091;26;20425;-72
2024/04/12 08:27:46;;;;;;;11.15;6.72;;;20.10;71.60;;;;;;5483258;26;20012;-70
2024/04/12 08:30:19;;;;;;;12.38;6.80;;;20.10;68.80;;;;;;5509259;26;20086;-72
2024/04/12 08:32:51;;;;;;;8.50;6.57;;;20.10;68.80;;;;;;5477540;26;20014;-72
2024/04/12 08:35:24;;;;;;;15.45;6.70;;;20.10;69.60;;;;;;5460291;26;20005;-72
2024/04/12 08:37:57;;;;;;;14.10;6.60;;;20.20;68.40;;;;;;5521278;26;20025;-70
2024/04/12 08:40:26;;;;;;;10.55;6.20;;;20.20;68.60;;;;;;5489448;26;20338;-76
2024/04/12 08:42:57;;;;;;;;;;;20.50;68.30;;;;;;5473857;26;20013;-77
2024/04/12 08:45:36;;;;;;;12.75;6.78;;;20.70;69.40;;;;;;5467980;26;19924;-76
2024/04/12 08:48:04;;;;;;;9.95;7.00;;;20.90;68.60;;;;;;5512100;26;20005;-78
2024/04/12 08:50:35;;;;;;;9.10;5.57;;;21.10;67.10;;;;;;5429886;26;20003;-76
2024/04/12 08:53:15;;;;;;;11.38;6.65;;;21.10;66.50;;;;;;5432079;26;20074;-77
2024/04/12 08:55:44;;;;;;;10.30;6.13;;;21.10;67.00;;;;;;5402790;26;20017;-78
2024/04/12 08:58:20;;;;;;;12.95;6.57;;;21.20;67.00;;;;;;5460282;26;19998;-78
2024/04/12 09:00:55;;;;;;;9.40;5.60;;;21.20;66.90;;;;;;5446896;26;20081;-78
2024/04/12 09:03:35;;;;;;;13.32;6.72;;;21.40;66.20;;;;;;5482809;26;19997;-80
2024/04/12 09:06:04;;;;;;;10.30;5.75;;;21.60;64.60;;;;;;5494918;26;20331;-78
2024/04/12 09:08:37;;;;;;;8.70;5.40;;;21.70;61.20;;;;;;5472918;26;19994;-80
2024/04/12 09:11:08;;;;;;;10.45;5.80;;;21.60;62.90;;;;;;5429230;26;20017;-81
2024/04/12 09:13:36;;;;;;;10.63;6.13;;;21.70;63.20;;;;;;5471801;26;20017;-81
2024/04/12 09:16:07;;;;;;;9.13;5.88;;;21.80;64.10;;;;;;5442884;26;20014;-81
2024/04/12 09:18:46;;;;;;;8.98;5.38;;;22.00;63.00;;;;;;5466420;26;19994;-85
2024/04/12 09:22:10;;;;;;;13.30;6.10;;;21.90;62.00;;;;;;5510119;26;20010;-83
2024/04/12 09:25:41;;;;;;;11.27;6.03;;;21.80;63.60;;;;;;5470953;26;20057;-85
2024/04/12 09:29:09;;;;;;;12.48;5.95;;;21.90;63.80;;;;;;5423671;26;20014;-84
2024/04/12 09:33:00;;;;;;;8.07;5.57;;;22.00;64.00;;;;;;5485852;26;20437;-82
2024/04/12 09:35:56;;;;;;;12.38;6.93;;;22.20;63.30;;;;;;5468635;26;20086;-84
2024/04/12 09:38:27;;;;;;;10.90;5.75;;;22.40;63.50;;;;;;5416055;26;19995;-83
2024/04/12 09:41:03;;;;;;;9.23;6.07;;;22.60;63.30;;;;;;5472210;26;20009;-82
2024/04/12 09:43:46;;;;;;;12.35;5.90;;;22.60;60.90;;;;;;5459899;26;20095;-83
2024/04/12 10:38:09;;;;;;;11.10;5.68;;;24.30;58.80;;;;;;5488043;26;20006;-84
2024/04/12 10:41:03;;;;;;;9.88;5.30;;;24.50;58.60;;;;;;5508867;26;19993;-84
2024/04/12 10:43:35;;;;;;;7.78;5.70;;;24.60;58.20;;;;;;5433398;26;20097;-84
2024/04/12 10:46:05;;;;;;;10.10;5.38;;;24.80;57.10;;;;;;5472224;26;20436;-83
2024/04/12 10:48:33;;;;;;;11.95;5.82;;;24.90;57.00;;;;;;5480958;26;20002;-85
2024/04/12 10:51:08;;;;;;;9.65;5.63;;;25.00;55.50;;;;;;5481905;26;20002;-83
2024/04/12 10:53:42;;;;;;;10.40;5.47;;;24.70;56.00;;;;;;5428820;26;20008;-83
2024/04/12 10:56:18;;;;;;;10.95;5.72;;;24.50;56.40;;;;;;5455881;26;20013;-83
2024/04/12 10:58:51;;;;;;;9.30;4.63;;;24.50;55.40;;;;;;5457977;26;20055;-85
2024/04/12 11:01:23;;;;;;;7.72;5.50;;;24.60;54.80;;;;;;5458853;26;20067;-84
2024/04/12 11:04:12;;;;;;;10.52;5.13;;;24.90;56.10;;;;;;5463248;26;20002;-82
2024/04/12 11:06:52;;;;;;;8.48;4.95;;;25.10;55.90;;;;;;5458646;26;20038;-83
2024/04/12 11:09:40;;;;;;;;;;;;;;;;;;;;;
2024/04/12 11:12:17;;;;;;;9.18;4.78;;;25.10;53.20;;;;;;5478887;26;20005;-83
2024/04/12 11:14:50;;;;;;;9.63;5.35;;;25.30;54.10;;;;;;5427462;26;20016;-83
2024/04/12 11:31:39;;;;;;;9.95;4.22;;;28.90;44.10;;;;;;5436070;26;20484;-86
2024/04/12 11:34:06;;;;;;;7.03;4.20;;;28.70;45.40;;;;;;5482605;26;20008;-86
2024/04/12 11:36:39;;;;;;;9.18;4.13;;;29.60;43.90;;;;;;5428806;26;20374;-84
2024/04/12 11:39:17;;;;;;;10.07;4.25;;;30.10;42.30;;;;;;5435177;26;20034;-86
2024/04/12 11:41:47;;;;;;;8.25;4.57;;;29.30;42.80;;;;;;5427346;26;20316;-84
2024/04/12 11:44:17;;;;;;;;;;;29.40;44.90;;;;;;5475276;26;20412;-84
2024/04/12 11:46:46;;;;;;;7.90;4.40;;;29.80;45.10;;;;;;5455805;26;19924;-86
2024/04/12 11:49:16;;;;;;;10.97;4.33;;;29.30;44.50;;;;;;5476252;26;20001;-84
2024/04/12 11:51:48;;;;;;;8.43;4.53;;;29.00;46.30;;;;;;5459902;26;20016;-85
2024/04/12 11:54:15;;;;;;;7.07;4.28;;;28.30;46.40;;;;;;5481663;26;20006;-81
2024/04/12 11:56:49;;;;;;;8.48;3.97;;;28.00;46.70;;;;;;5458817;26;20074;-83
2024/04/12 12:00:18;;;;;;;7.63;3.80;;;27.70;46.80;;;;;;5459697;26;20014;-83
2024/04/12 12:02:51;;;;;;;11.40;4.07;;;27.30;47.90;;;;;;5431825;26;19998;-85
2024/04/12 12:05:21;;;;;;;10.18;4.75;;;27.90;47.90;;;;;;5450833;26;20010;-84
2024/04/12 12:07:49;;;;;;;7.32;4.20;;;28.00;47.00;;;;;;5459920;26;20017;-82
2024/04/12 12:10:18;;;;;;;;;;;28.00;47.00;;;;;;5448711;26;20016;-80
2024/04/12 12:12:45;;;;;;;8.60;4.10;;;27.50;47.30;;;;;;5458755;26;19931;-85
2024/04/12 12:15:14;;;;;;;8.20;4.05;;;27.80;47.50;;;;;;5460154;26;20010;-83
2024/04/12 12:17:42;;;;;;;8.40;4.07;;;28.00;47.00;;;;;;5462456;26;20002;-83
2024/04/12 12:20:09;;;;;;;6.93;4.25;;;28.20;47.10;;;;;;5482704;26;20051;-84
2024/04/12 12:22:38;;;;;;;7.38;4.35;;;28.40;47.10;;;;;;5498252;26;20046;-82
2024/04/12 12:25:07;;;;;;;7.18;3.90;;;28.60;47.10;;;;;;5435051;26;19998;-80
2024/04/12 12:27:36;;;;;;;6.60;4.10;;;28.60;46.30;;;;;;5518137;26;20006;-82
2024/04/12 12:30:04;;;;;;;11.95;4.85;;;27.70;45.90;;;;;;5496561;26;20009;-85
2024/04/12 12:32:35;;;;;;;6.65;4.13;;;28.00;46.00;;;;;;5444995;26;20017;-84
2024/04/12 12:35:06;;;;;;;7.00;3.93;;;27.70;46.40;;;;;;5492166;26;20009;-83
2024/04/12 12:37:43;;;;;;;6.28;3.60;;;28.10;46.50;;;;;;5480045;26;20332;-83
2024/04/12 12:41:35;;;;;;;7.45;4.60;;;28.60;46.30;;;;;;5459904;26;19998;-84
2024/04/12 12:44:06;;;;;;;9.13;4.68;;;29.30;44.80;;;;;;5431291;26;20006;-85
2024/04/12 12:46:48;;;;;;;9.40;4.50;;;29.30;45.40;;;;;;5461265;26;20005;-83
2024/04/12 12:49:25;;;;;;;7.72;4.50;;;29.40;46.70;;;;;;5445036;26;20448;-85
2024/04/12 12:51:52;;;;;;;9.45;4.85;;;28.50;47.20;;;;;;5458912;26;20027;-84
2024/04/12 12:54:20;;;;;;;11.27;4.53;;;28.40;48.10;;;;;;5480124;26;20002;-81
2024/04/12 12:56:53;;;;;;;8.73;4.97;;;30.10;47.10;;;;;;5428600;26;20430;-82
2024/04/12 12:59:23;;;;;;;10.10;4.70;;;32.00;45.40;;;;;;5489559;26;19998;-84
2024/04/12 13:01:56;;;;;;;9.02;4.60;;;32.20;44.70;;;;;;5445655;26;20017;-82
2024/04/12 13:04:26;;;;;;;9.93;4.93;;;32.00;43.50;;;;;;5433747;26;20002;-83
2024/04/12 13:06:53;;;;;;;7.47;4.57;;;33.60;43.90;;;;;;5428804;26;20010;-84
2024/04/12 13:09:34;;;;;;;8.77;4.15;;;34.40;43.40;;;;;;5483369;26;20009;-82
2024/04/12 13:12:42;;;;;;;9.40;4.90;;;36.80;42.20;;;;;;5466450;26;20448;-84
2024/04/12 13:15:29;;;;;;;9.93;4.65;;;38.10;40.80;;;;;;5438418;26;20315;-84
2024/04/12 13:18:24;;;;;;;9.43;4.40;;;37.70;40.40;;;;;;5478607;26;20426;-81
2024/04/12 13:25:00;;;;;;;5.82;4.10;;;37.00;39.60;;;;;;5484175;26;20001;-82
2024/04/12 13:27:46;;;;;;;10.35;4.68;;;36.00;39.80;;;;;;5434483;26;20070;-82
2024/04/12 13:30:17;;;;;;;8.68;4.75;;;35.70;40.50;;;;;;5462038;26;20002;-81
2024/04/12 13:32:49;;;;;;;6.10;3.38;;;34.20;41.40;;;;;;5464465;26;20341;-82
2024/04/12 13:35:28;;;;;;;6.20;3.75;;;34.00;41.50;;;;;;5432652;26;20026;-81
2024/04/12 13:38:05;;;;;;;6.38;3.60;;;34.40;41.30;;;;;;5474897;26;20002;-81
2024/04/12 13:40:45;;;;;;;10.23;4.28;;;35.20;41.30;;;;;;5460442;26;20398;-83
2024/04/12 13:43:31;;;;;;;10.43;4.57;;;35.50;41.80;;;;;;5462210;26;19998;-81
2024/04/12 13:51:49;;;;;;;8.80;4.38;;;34.00;41.20;;;;;;5457763;26;20002;-82
2024/04/12 13:54:25;;;;;;;8.70;4.30;;;32.40;43.20;;;;;;5483713;26;20020;-82
2024/04/12 13:56:58;;;;;;;7.50;4.13;;;33.10;42.80;;;;;;5471715;26;20005;-85
2024/04/12 13:59:30;;;;;;;8.43;4.32;;;33.80;42.00;;;;;;5495894;26;20006;-84
2024/04/12 14:02:04;;;;;;;6.43;3.90;;;33.40;42.00;;;;;;5445844;26;20071;-81
2024/04/12 14:04:53;;;;;;;7.45;4.10;;;32.40;42.90;;;;;;5463325;26;20033;-81
2024/04/12 14:07:27;;;;;;;8.05;4.60;;;31.90;43.40;;;;;;5457747;26;20002;-83
2024/04/12 14:10:05;;;;;;;7.85;4.22;;;33.20;42.50;;;;;;5440778;26;20414;-83
2024/04/12 14:12:33;;;;;;;6.97;3.33;;;35.20;41.70;;;;;;5457046;26;20074;-82
2024/04/12 14:15:01;;;;;;;6.47;3.88;;;35.80;40.70;;;;;;5441973;26;20043;-83
2024/04/12 14:17:29;;;;;;;7.70;3.83;;;36.40;41.00;;;;;;5456265;26;19997;-82
2024/04/12 14:19:56;;;;;;;8.27;4.38;;;35.90;40.20;;;;;;5489958;26;20013;-83
2024/04/12 14:22:25;;;;;;;6.72;4.25;;;35.20;41.40;;;;;;5456776;26;20020;-81
2024/04/12 14:25:04;;;;;;;8.50;4.18;;;36.10;41.30;;;;;;5461028;26;20077;-82
2024/04/12 14:27:35;;;;;;;13.32;5.35;;;37.10;40.40;;;;;;5493128;26;20041;-83
2024/04/12 14:30:06;;;;;;;6.30;3.75;;;35.90;41.30;;;;;;5470825;26;20425;-82
2024/04/12 14:32:34;;;;;;;9.15;4.15;;;36.40;41.30;;;;;;5457037;26;20014;-83
2024/04/12 14:35:10;;;;;;;9.15;4.10;;;37.20;40.30;;;;;;5458811;26;19998;-84
2024/04/12 14:37:44;;;;;;;6.68;4.03;;;36.90;40.70;;;;;;5431491;26;20042;-82
2024/04/12 14:40:20;;;;;;;7.28;4.20;;;34.50;40.60;;;;;;5456571;26;20310;-81
2024/04/12 14:42:58;;;;;;;7.13;4.00;;;33.50;42.60;;;;;;5459692;26;19998;-82
2024/04/12 14:46:09;;;;;;;12.07;4.50;;;32.70;42.60;;;;;;5454951;26;20006;-82